createdAt,value
2022-09-17T00:00:28.188Z,65.41
2022-09-17T00:03:14.144Z,65.47
2022-09-17T00:06:07.478Z,67.27
2022-09-17T00:08:54.016Z,67.33
2022-09-17T00:11:42.157Z,67.83
2022-09-17T00:14:28.410Z,67.20
2022-09-17T00:17:14.412Z,66.50
2022-09-17T00:20:00.295Z,66.64
2022-09-17T00:22:46.144Z,66.25
2022-09-17T00:25:32.088Z,66.14
2022-09-17T00:28:18.238Z,65.98
2022-09-17T00:31:09.478Z,65.81
2022-09-17T00:33:55.576Z,65.64
2022-09-17T00:36:41.956Z,65.83
2022-09-17T00:39:28.100Z,65.71
2022-09-17T00:42:14.848Z,65.58
2022-09-17T00:45:01.455Z,65.62
2022-09-17T00:47:59.002Z,65.85
2022-09-17T00:50:45.199Z,65.63
2022-09-17T00:53:31.666Z,65.72
2022-09-17T00:56:23.308Z,65.66
2022-09-17T00:59:09.862Z,65.63
2022-09-17T01:01:55.995Z,65.65
2022-09-17T01:04:42.970Z,65.69
2022-09-17T01:07:42.520Z,65.82
2022-09-17T01:10:46.933Z,65.79
2022-09-17T01:13:54.536Z,65.97
2022-09-17T01:17:03.339Z,65.95
2022-09-17T01:20:09.267Z,65.80
2022-09-17T01:23:37.771Z,65.76
2022-09-17T01:26:32.800Z,65.85
2022-09-17T01:29:24.586Z,65.80
2022-09-17T01:32:20.665Z,66.01
2022-09-17T01:35:13.474Z,65.84
2022-09-17T01:38:05.412Z,65.88
2022-09-17T01:40:54.719Z,65.72
2022-09-17T01:44:09.841Z,66.30
2022-09-17T01:47:11.061Z,67.22
2022-09-17T01:50:11.906Z,66.28
2022-09-17T01:52:58.373Z,66.15
2022-09-17T01:55:45.939Z,66.21
2022-09-17T01:58:35.602Z,66.06
2022-09-17T02:01:22.320Z,65.96
2022-09-17T02:04:13.715Z,66.09
2022-09-17T02:07:04.720Z,66.11
2022-09-17T02:09:57.551Z,66.06
2022-09-17T02:12:47.261Z,65.93
2022-09-17T02:15:37.830Z,68.24
2022-09-17T02:18:28.729Z,67.76
2022-09-17T02:21:26.864Z,66.81
2022-09-17T02:24:31.374Z,67.62
2022-09-17T02:27:25.090Z,67.15
2022-09-17T02:30:11.154Z,67.63
2022-09-17T02:32:57.413Z,66.93
2022-09-17T02:35:44.304Z,66.60
2022-09-17T02:38:31.129Z,66.59
2022-09-17T02:41:21.017Z,66.51
2022-09-17T02:44:20.904Z,67.61
2022-09-17T02:47:25.046Z,67.34
2022-09-17T02:50:30.942Z,68.41
2022-09-17T02:53:44.714Z,69.98
2022-09-17T02:56:45.869Z,68.46
2022-09-17T02:59:59.490Z,67.24
2022-09-17T03:02:56.490Z,68.32
2022-09-17T03:05:42.835Z,67.57
2022-09-17T03:08:31.078Z,67.05
2022-09-17T03:11:16.955Z,67.26
2022-09-17T03:14:02.797Z,67.32
2022-09-17T03:16:48.708Z,67.53
2022-09-17T03:19:34.572Z,66.77
2022-09-17T03:22:20.369Z,66.68
2022-09-17T03:25:06.701Z,66.47
2022-09-17T03:27:52.683Z,66.42
2022-09-17T03:30:38.761Z,66.28
2022-09-17T03:33:24.940Z,66.33
2022-09-17T03:36:10.765Z,66.21
2022-09-17T03:38:58.628Z,66.05
2022-09-17T03:41:44.597Z,66.10
2022-09-17T03:44:30.367Z,66.46
2022-09-17T03:47:17.059Z,65.99
2022-09-17T03:50:03.518Z,66.62
2022-09-17T03:52:49.294Z,66.81
2022-09-17T03:55:38.500Z,66.32
2022-09-17T03:58:24.673Z,66.23
2022-09-17T04:01:10.637Z,66.09
2022-09-17T04:03:57.423Z,66.30
2022-09-17T04:06:43.706Z,66.32
2022-09-17T04:09:30.047Z,66.01
2022-09-17T04:12:15.893Z,66.18
2022-09-17T04:15:01.667Z,66.02
2022-09-17T04:17:47.653Z,66.08
2022-09-17T04:20:33.926Z,66.24
2022-09-17T04:23:19.672Z,66.13
2022-09-17T04:26:05.877Z,66.44
2022-09-17T04:28:51.985Z,66.15
2022-09-17T04:31:37.995Z,66.46
2022-09-17T04:34:23.959Z,67.71
2022-09-17T04:37:09.874Z,67.40
2022-09-17T04:39:55.922Z,67.04
2022-09-17T04:42:42.129Z,66.81
2022-09-17T04:45:27.979Z,66.83
2022-09-17T04:48:13.968Z,67.08
2022-09-17T04:51:00.134Z,67.13
2022-09-17T04:53:46.032Z,67.00
2022-09-17T04:56:31.907Z,66.74
2022-09-17T04:59:18.021Z,66.73
2022-09-17T05:02:04.345Z,66.51
2022-09-17T05:04:50.750Z,66.70
2022-09-17T05:07:38.885Z,66.63
2022-09-17T05:10:25.500Z,66.22
2022-09-17T05:13:11.740Z,66.52
2022-09-17T05:15:57.650Z,66.55
2022-09-17T05:18:43.646Z,66.39
2022-09-17T05:21:30.029Z,66.35
2022-09-17T05:24:15.972Z,66.28
2022-09-17T05:27:01.966Z,69.07
2022-09-17T05:29:48.052Z,69.68
2022-09-17T05:32:35.155Z,68.30
2022-09-17T05:35:21.090Z,67.68
2022-09-17T05:38:09.639Z,67.27
2022-09-17T05:40:55.667Z,67.46
2022-09-17T05:43:43.780Z,67.87
2022-09-17T05:46:29.866Z,68.60
2022-09-17T05:49:16.151Z,67.61
2022-09-17T05:52:03.656Z,68.38
2022-09-17T05:54:49.952Z,68.25
2022-09-17T05:57:35.692Z,67.59
2022-09-17T06:00:21.650Z,68.36
2022-09-17T06:03:09.277Z,68.62
2022-09-17T06:05:56.947Z,67.83
2022-09-17T06:08:43.131Z,68.67
2022-09-17T06:11:29.107Z,68.48
2022-09-17T06:14:15.609Z,67.76
2022-09-17T06:17:01.593Z,67.96
2022-09-17T06:19:47.532Z,67.70
2022-09-17T06:22:33.701Z,67.34
2022-09-17T06:25:19.892Z,67.83
2022-09-17T06:28:05.972Z,67.83
2022-09-17T06:30:54.575Z,67.75
2022-09-17T06:33:41.116Z,68.16
2022-09-17T06:36:27.312Z,68.08
2022-09-17T06:39:13.337Z,68.13
2022-09-17T06:41:59.613Z,68.54
2022-09-17T06:44:47.934Z,68.29
2022-09-17T06:47:33.729Z,68.81
2022-09-17T06:50:20.015Z,68.76
2022-09-17T06:53:06.092Z,69.12
2022-09-17T06:55:51.886Z,69.94
2022-09-17T06:58:38.325Z,70.16
2022-09-17T07:01:24.212Z,68.99
2022-09-17T07:04:10.174Z,69.12
2022-09-17T07:06:56.137Z,69.15
2022-09-17T07:09:42.272Z,68.90
2022-09-17T07:12:28.423Z,69.22
2022-09-17T07:15:15.873Z,68.14
2022-09-17T07:18:08.608Z,68.44
2022-09-17T07:21:02.613Z,68.30
2022-09-17T07:23:48.714Z,69.01
2022-09-17T07:26:34.796Z,68.71
2022-09-17T07:29:21.482Z,68.71
2022-09-17T07:32:07.933Z,68.51
2022-09-17T07:34:53.974Z,68.13
2022-09-17T07:37:40.149Z,68.71
2022-09-17T07:40:26.210Z,68.48
2022-09-17T07:43:12.194Z,68.52
2022-09-17T07:45:59.171Z,68.30
2022-09-17T07:48:46.812Z,67.97
2022-09-17T07:51:32.534Z,68.06
2022-09-17T07:54:19.254Z,68.72
2022-09-17T07:57:05.794Z,68.42
2022-09-17T07:59:52.014Z,68.22
2022-09-17T08:02:38.009Z,67.97
2022-09-17T08:05:24.977Z,68.01
2022-09-17T08:08:10.971Z,68.28
2022-09-17T08:11:00.591Z,68.94
2022-09-17T08:13:51.182Z,68.60
2022-09-17T08:16:37.192Z,68.36
2022-09-17T08:19:23.105Z,68.10
2022-09-17T08:22:08.816Z,67.79
2022-09-17T08:24:54.711Z,67.72
2022-09-17T08:27:40.843Z,68.05
2022-09-17T08:30:26.694Z,67.69
2022-09-17T08:33:12.621Z,67.46
2022-09-17T08:36:01.276Z,67.52
2022-09-17T08:38:47.291Z,67.60
2022-09-17T08:42:02.452Z,67.53
2022-09-17T08:44:51.846Z,67.52
2022-09-17T08:47:40.942Z,67.33
2022-09-17T08:50:31.170Z,67.29
2022-09-17T08:53:32.343Z,67.46
2022-09-17T08:56:19.413Z,67.35
2022-09-17T08:59:48.217Z,67.50
2022-09-17T09:02:52.852Z,67.49
2022-09-17T09:05:46.133Z,67.19
2022-09-17T09:08:43.664Z,67.51
2022-09-17T09:11:31.015Z,67.46
2022-09-17T09:14:24.535Z,67.47
2022-09-17T09:17:11.058Z,67.35
2022-09-17T09:19:58.022Z,67.67
2022-09-17T09:22:50.827Z,67.57
2022-09-17T09:25:43.174Z,67.66
2022-09-17T09:28:35.476Z,67.54
2022-09-17T09:31:47.483Z,67.82
2022-09-17T09:34:34.837Z,67.67
2022-09-17T09:37:26.935Z,67.71
2022-09-17T09:40:36.659Z,68.40
2022-09-17T09:43:46.577Z,68.14
2022-09-17T09:46:48.338Z,68.61
2022-09-17T09:49:36.631Z,68.39
2022-09-17T09:52:39.025Z,68.39
2022-09-17T09:55:34.142Z,70.40
2022-09-17T09:58:41.736Z,68.38
2022-09-17T10:01:29.176Z,68.06
2022-09-17T10:04:35.184Z,68.04
2022-09-17T10:07:21.247Z,67.49
2022-09-17T10:10:10.924Z,67.43
2022-09-17T10:13:07.436Z,67.46
2022-09-17T10:15:53.504Z,66.97
2022-09-17T10:18:39.836Z,67.37
2022-09-17T10:21:39.777Z,66.92
2022-09-17T10:24:27.866Z,66.85
2022-09-17T10:27:16.945Z,66.68
2022-09-17T10:30:09.076Z,66.79
2022-09-17T10:33:12.096Z,66.68
2022-09-17T10:36:04.534Z,66.49
2022-09-17T10:38:50.453Z,66.58
2022-09-17T10:41:36.289Z,66.49
2022-09-17T10:44:24.334Z,66.73
2022-09-17T10:47:31.178Z,67.05
2022-09-17T10:50:19.415Z,66.80
2022-09-17T10:53:07.363Z,66.40
2022-09-17T10:56:14.651Z,66.09
2022-09-17T10:59:09.600Z,65.86
2022-09-17T11:02:14.346Z,66.04
2022-09-17T11:05:03.487Z,65.89
2022-09-17T11:07:57.273Z,65.55
2022-09-17T11:11:01.919Z,65.95
2022-09-17T11:14:09.690Z,64.31
2022-09-17T11:17:17.597Z,65.88
2022-09-17T11:20:34.352Z,65.84
2022-09-17T11:23:26.464Z,65.30
2022-09-17T11:26:21.479Z,65.30
2022-09-17T11:29:41.611Z,65.06
2022-09-17T11:32:52.128Z,64.86
2022-09-17T11:35:46.895Z,64.86
2022-09-17T11:38:44.026Z,64.24
2022-09-17T11:41:42.665Z,63.43
2022-09-17T11:44:33.651Z,64.46
2022-09-17T11:47:24.243Z,62.45
2022-09-17T11:51:12.106Z,64.63
2022-09-17T11:54:24.186Z,64.44
2022-09-17T11:57:27.942Z,64.30
2022-09-17T12:00:20.010Z,64.00
2022-09-17T12:03:15.939Z,64.53
2022-09-17T12:06:13.444Z,63.83
2022-09-17T12:09:03.920Z,63.90
2022-09-17T12:11:56.313Z,64.22
2022-09-17T12:14:54.193Z,64.14
2022-09-17T12:18:32.109Z,64.42
2022-09-17T12:21:23.230Z,64.60
2022-09-17T12:24:26.488Z,64.51
2022-09-17T12:27:15.784Z,64.29
2022-09-17T12:30:20.527Z,64.01
2022-09-17T12:33:14.373Z,65.38
2022-09-17T12:36:19.676Z,65.07
2022-09-17T12:39:54.968Z,64.65
2022-09-17T12:42:47.853Z,65.48
2022-09-17T12:46:15.349Z,65.39
2022-09-17T12:49:23.405Z,65.10
2022-09-17T12:52:15.505Z,64.08
2022-09-17T12:55:01.299Z,64.71
2022-09-17T12:58:05.434Z,64.28
2022-09-17T13:01:02.147Z,64.26
2022-09-17T13:03:56.524Z,64.21
2022-09-17T13:07:06.536Z,62.14
2022-09-17T13:10:12.836Z,63.69
2022-09-17T13:13:07.991Z,62.92
2022-09-17T13:15:57.975Z,63.60
2022-09-17T13:19:20.355Z,63.62
2022-09-17T13:22:19.649Z,61.36
2022-09-17T13:25:09.054Z,63.30
2022-09-17T13:28:24.689Z,63.28
2022-09-17T13:31:11.962Z,62.99
2022-09-17T15:26:29.235Z,68.10
2022-09-17T15:29:15.680Z,67.92
2022-09-17T15:32:06.378Z,67.58
2022-09-17T15:35:15.615Z,67.22
2022-09-17T15:38:22.304Z,67.02
2022-09-17T15:41:27.801Z,66.08
2022-09-17T15:44:30.442Z,65.41
2022-09-17T15:47:47.748Z,65.58
2022-09-17T15:50:35.785Z,65.99
2022-09-17T15:53:32.645Z,65.68
2022-09-17T15:56:21.986Z,65.82
2022-09-17T15:59:32.012Z,65.52
2022-09-17T16:02:30.461Z,64.27
2022-09-17T16:05:19.202Z,66.06
2022-09-17T16:08:19.524Z,64.65
2022-09-17T16:11:05.763Z,64.64
2022-09-17T16:13:55.893Z,64.21
2022-09-17T16:16:42.051Z,65.23
2022-09-17T16:19:27.861Z,64.75
2022-09-17T16:22:13.834Z,65.01
2022-09-17T16:24:59.710Z,64.42
2022-09-17T16:28:00.065Z,63.85
2022-09-17T16:30:51.750Z,64.53
2022-09-17T16:33:37.814Z,63.55
2022-09-17T16:36:23.700Z,63.67
2022-09-17T16:39:09.592Z,63.83
2022-09-17T16:41:55.542Z,63.11
2022-09-17T16:44:41.633Z,63.44
2022-09-17T16:47:27.600Z,63.30
2022-09-17T16:50:15.636Z,63.43
2022-09-17T16:53:05.403Z,63.06
2022-09-17T16:55:51.424Z,63.12
2022-09-17T16:58:38.863Z,62.75
2022-09-17T17:01:25.066Z,62.57
2022-09-17T17:04:11.069Z,62.63
2022-09-17T17:06:57.088Z,62.45
2022-09-17T17:09:42.854Z,62.37
2022-09-17T17:12:28.819Z,62.51
2022-09-17T17:15:14.993Z,62.51
2022-09-17T17:18:00.967Z,62.37
2022-09-17T17:20:48.711Z,62.22
2022-09-17T17:23:35.862Z,62.49
2022-09-17T17:26:21.929Z,62.32
2022-09-17T17:29:09.114Z,62.16
2022-09-17T17:31:55.257Z,62.05
2022-09-17T17:34:41.446Z,62.13
2022-09-17T17:37:27.516Z,62.04
2022-09-17T17:40:13.766Z,62.10
2022-09-17T17:42:59.675Z,62.07
2022-09-17T17:45:45.648Z,61.96
2022-09-17T17:48:31.558Z,61.95
2022-09-17T17:51:23.873Z,62.32
2022-09-17T17:54:10.117Z,62.22
2022-09-17T17:56:56.447Z,62.14
2022-09-17T17:59:42.499Z,62.27
2022-09-17T18:02:32.525Z,62.07
2022-09-17T18:05:19.040Z,62.20
2022-09-17T18:08:04.766Z,62.08
2022-09-17T18:10:55.448Z,62.20
2022-09-17T18:13:41.742Z,62.15
2022-09-17T18:16:29.258Z,62.19
2022-09-17T18:19:15.534Z,62.24
2022-09-17T18:22:02.109Z,62.06
2022-09-17T18:24:48.218Z,62.25
2022-09-17T18:27:34.011Z,62.45
2022-09-17T18:30:20.084Z,62.33
2022-09-17T18:33:06.366Z,62.50
2022-09-17T18:35:56.997Z,62.38
2022-09-17T18:38:43.150Z,62.63
2022-09-17T18:41:29.795Z,62.48
2022-09-17T18:44:16.081Z,62.57
2022-09-17T18:47:02.802Z,62.62
2022-09-17T18:49:48.881Z,62.66
2022-09-17T18:52:35.264Z,62.84
2022-09-17T18:55:21.774Z,62.72
2022-09-17T18:58:07.504Z,62.88
2022-09-17T19:00:53.559Z,62.75
2022-09-17T19:03:40.287Z,62.78
2022-09-17T19:06:27.730Z,62.65
2022-09-17T19:09:13.783Z,62.66
2022-09-17T19:12:00.112Z,62.70
2022-09-17T19:14:46.098Z,62.79
2022-09-17T19:17:31.992Z,63.01
2022-09-17T19:20:19.920Z,63.03
2022-09-17T19:23:07.119Z,62.76
2022-09-17T19:25:52.945Z,62.95
2022-09-17T19:28:38.981Z,62.61
2022-09-17T19:31:25.105Z,62.75
2022-09-17T19:34:11.333Z,62.68
2022-09-17T19:36:57.146Z,62.55
2022-09-17T19:39:43.601Z,62.62
2022-09-17T19:42:29.947Z,62.57
2022-09-17T19:45:17.022Z,62.68
2022-09-17T19:48:05.916Z,62.69
2022-09-17T19:50:53.523Z,62.61
2022-09-17T19:53:39.353Z,62.85
2022-09-17T19:56:27.120Z,62.83
2022-09-17T19:59:12.956Z,62.69
2022-09-17T20:01:59.207Z,62.84
2022-09-17T20:04:45.394Z,63.00
2022-09-17T20:07:31.676Z,62.72
2022-09-17T20:10:17.712Z,62.94
2022-09-17T20:13:04.199Z,62.97
2022-09-17T20:15:50.291Z,62.80
2022-09-17T20:18:36.760Z,63.04
2022-09-17T20:21:30.438Z,63.05
2022-09-17T20:24:16.439Z,63.27
2022-09-17T20:27:02.311Z,62.88
2022-09-17T20:29:48.258Z,62.98
2022-09-17T20:32:34.217Z,62.99
2022-09-17T20:35:20.037Z,62.96
2022-09-17T20:38:59.989Z,63.03
2022-09-17T20:41:14.140Z,62.82
2022-09-17T20:44:00.146Z,62.76
2022-09-17T20:46:46.609Z,62.56
2022-09-17T20:49:33.721Z,62.54
2022-09-17T20:52:21.262Z,62.53
2022-09-17T20:55:08.069Z,63.08
2022-09-17T20:57:54.309Z,62.34
2022-09-17T21:00:42.686Z,62.05
2022-09-17T21:03:30.070Z,62.32
2022-09-17T21:06:24.329Z,61.72
2022-09-17T21:09:12.395Z,60.76
2022-09-17T21:11:58.544Z,60.14
2022-09-17T21:14:44.490Z,60.17
2022-09-17T21:17:31.874Z,59.34
2022-09-17T21:20:17.774Z,59.34
2022-09-17T21:23:03.685Z,59.12
2022-09-17T21:25:49.781Z,58.96
2022-09-17T21:28:36.376Z,58.33
2022-09-17T21:31:32.090Z,58.75
2022-09-17T21:34:18.633Z,58.96
2022-09-17T21:37:05.621Z,58.28
2022-09-17T21:39:51.895Z,57.34
2022-09-17T21:42:38.928Z,57.93
2022-09-17T21:45:25.049Z,58.06
2022-09-17T21:48:10.926Z,57.87
2022-09-17T21:51:11.153Z,57.57
2022-09-17T21:53:59.468Z,55.93
2022-09-17T21:56:45.995Z,56.86
2022-09-17T21:59:32.255Z,57.27
2022-09-17T22:02:18.560Z,57.28
2022-09-17T22:05:05.047Z,57.08
2022-09-17T22:07:51.337Z,56.98
2022-09-17T22:10:37.159Z,57.04
2022-09-17T22:13:23.234Z,57.02
2022-09-17T22:16:10.187Z,57.09
2022-09-17T22:18:56.562Z,57.32
2022-09-17T22:21:46.041Z,57.01
2022-09-17T22:24:32.066Z,57.05
2022-09-17T22:27:17.853Z,57.03
2022-09-17T22:30:04.001Z,57.35
2022-09-17T22:32:50.062Z,57.23
2022-09-17T22:35:36.096Z,56.90
2022-09-17T22:38:22.307Z,57.08
2022-09-17T22:41:12.674Z,56.77
2022-09-17T22:44:04.654Z,56.95
2022-09-17T22:46:51.710Z,57.07
2022-09-17T22:49:38.089Z,57.03
2022-09-17T22:52:24.130Z,57.09
2022-09-17T22:55:10.534Z,56.84
2022-09-17T22:57:56.392Z,57.14
2022-09-17T23:00:42.473Z,57.04
2022-09-17T23:03:28.953Z,56.81
2022-09-17T23:06:17.698Z,57.02
2022-09-17T23:09:04.089Z,57.47
2022-09-17T23:11:50.304Z,57.86
2022-09-17T23:14:36.256Z,57.51
2022-09-17T23:17:25.964Z,56.97
2022-09-17T23:20:15.474Z,57.50
2022-09-17T23:23:01.301Z,57.11
2022-09-17T23:25:47.529Z,57.25
2022-09-17T23:28:37.325Z,57.02
2022-09-17T23:31:26.143Z,56.86
2022-09-17T23:34:12.248Z,56.77
2022-09-17T23:36:58.372Z,56.92
2022-09-17T23:39:44.233Z,57.15
2022-09-17T23:42:34.080Z,56.91
2022-09-17T23:45:20.048Z,56.93
2022-09-17T23:48:05.888Z,57.11
2022-09-17T23:50:51.878Z,57.25
2022-09-17T23:53:38.748Z,56.79
2022-09-17T23:56:26.328Z,56.57
2022-09-17T23:59:12.755Z,57.15
